createdAt,value
2018-05-14T00:02:21.338Z,100853.47
2018-05-14T00:04:50.697Z,100862.05
2018-05-14T00:07:20.040Z,100870.08
2018-05-14T00:09:49.297Z,100867.10
2018-05-14T00:12:18.480Z,100858.17
2018-05-14T00:14:47.551Z,100857.98
2018-05-14T00:17:16.672Z,100853.59
2018-05-14T00:19:45.808Z,100858.39
2018-05-14T00:22:15.071Z,100856.41
2018-05-14T00:24:44.184Z,100865.16
2018-05-14T00:27:13.359Z,100872.10
2018-05-14T00:29:42.846Z,100876.27
2018-05-14T00:32:12.014Z,100867.45
2018-05-14T00:34:41.166Z,100861.11
2018-05-14T00:37:10.408Z,100863.60
2018-05-14T00:39:39.603Z,100859.78
2018-05-14T00:42:09.014Z,100855.02
2018-05-14T00:44:38.320Z,100870.45
2018-05-14T00:47:07.499Z,100861.68
2018-05-14T00:49:37.356Z,100863.40
2018-05-14T00:52:06.784Z,100876.18
2018-05-14T00:54:35.923Z,100879.81
2018-05-14T00:57:05.042Z,100876.28
2018-05-14T00:59:34.238Z,100878.24
2018-05-14T01:02:03.331Z,100883.80
2018-05-14T01:04:32.468Z,100877.89
2018-05-14T01:07:01.908Z,100872.69
2018-05-14T01:09:31.240Z,100873.03
2018-05-14T01:12:00.300Z,100873.75
2018-05-14T01:14:29.301Z,100869.11
2018-05-14T01:16:58.510Z,100873.66
2018-05-14T01:19:27.485Z,100868.30
2018-05-14T01:21:56.468Z,100864.66
2018-05-14T01:24:25.628Z,100871.20
2018-05-14T01:26:54.802Z,100877.41
2018-05-14T01:29:23.972Z,100867.64
2018-05-14T01:31:53.184Z,100863.38
2018-05-14T01:34:22.311Z,100863.41
2018-05-14T01:36:51.440Z,100878.59
2018-05-14T01:39:20.741Z,100866.78
2018-05-14T01:41:49.816Z,100866.27
2018-05-14T01:44:18.844Z,100858.00
2018-05-14T01:46:48.286Z,100856.48
2018-05-14T01:49:17.603Z,100857.36
2018-05-14T01:51:46.772Z,100873.02
2018-05-14T01:54:15.919Z,100855.73
2018-05-14T01:56:45.153Z,100867.03
2018-05-14T01:59:14.384Z,100863.44
2018-05-14T02:01:43.527Z,100863.98
2018-05-14T02:04:12.511Z,100856.68
2018-05-14T02:06:41.529Z,100874.98
2018-05-14T02:09:10.629Z,100865.08
2018-05-14T02:11:39.782Z,100868.34
2018-05-14T02:14:09.094Z,100871.45
2018-05-14T02:16:38.337Z,100879.72
2018-05-14T02:19:07.772Z,100877.30
2018-05-14T02:21:36.768Z,100896.12
2018-05-14T02:24:06.184Z,100885.69
2018-05-14T02:26:35.237Z,100897.14
2018-05-14T02:29:04.578Z,100888.83
2018-05-14T02:31:33.753Z,100901.17
2018-05-14T02:34:02.834Z,100897.16
2018-05-14T02:36:31.930Z,100896.78
2018-05-14T02:39:01.670Z,100900.17
2018-05-14T02:41:31.016Z,100905.66
2018-05-14T02:43:59.993Z,100905.53
2018-05-14T02:46:29.083Z,100913.59
2018-05-14T02:48:58.068Z,100903.91
2018-05-14T02:51:27.029Z,100901.83
2018-05-14T02:53:56.149Z,100903.26
2018-05-14T02:56:25.199Z,100907.28
2018-05-14T02:58:54.405Z,100902.36
2018-05-14T03:01:23.504Z,100913.88
2018-05-14T03:03:52.583Z,100909.80
2018-05-14T03:06:22.063Z,100927.78
2018-05-14T03:08:51.048Z,100916.54
2018-05-14T03:11:20.100Z,100937.68
2018-05-14T03:13:49.503Z,100912.25
2018-05-14T03:16:18.738Z,100915.98
2018-05-14T03:18:47.868Z,100934.79
2018-05-14T03:21:16.912Z,100926.03
2018-05-14T03:23:46.004Z,100924.06
2018-05-14T03:26:15.269Z,100938.29
2018-05-14T03:28:44.492Z,100939.54
2018-05-14T03:31:13.935Z,100956.34
2018-05-14T03:33:42.948Z,100949.27
2018-05-14T03:36:12.879Z,100944.64
2018-05-14T03:38:41.896Z,100946.70
2018-05-14T03:41:10.816Z,100952.86
2018-05-14T03:43:39.961Z,100953.67
2018-05-14T03:46:09.148Z,100957.48
2018-05-14T03:48:38.387Z,100955.48
2018-05-14T03:51:07.512Z,100949.70
2018-05-14T03:53:36.688Z,100956.19
2018-05-14T03:56:05.956Z,100959.70
2018-05-14T03:58:46.360Z,100967.75
2018-05-14T04:01:16.465Z,100958.28
2018-05-14T04:06:47.687Z,100960.03
2018-05-14T04:09:16.712Z,100971.55
2018-05-14T04:11:45.739Z,100974.92
2018-05-14T04:14:15.058Z,100985.47
2018-05-14T04:16:44.260Z,100980.04
2018-05-14T04:19:13.708Z,100984.38
2018-05-14T04:21:43.112Z,100979.63
2018-05-14T04:24:12.186Z,100981.40
2018-05-14T04:26:41.301Z,100979.08
2018-05-14T04:29:10.504Z,100991.62
2018-05-14T04:31:39.668Z,100991.62
2018-05-14T04:34:08.987Z,100995.24
2018-05-14T04:36:38.140Z,100999.27
2018-05-14T04:39:07.274Z,100999.69
2018-05-14T04:41:36.456Z,101001.26
2018-05-14T04:44:05.645Z,100994.43
2018-05-14T04:46:34.892Z,100996.23
2018-05-14T04:49:04.148Z,101000.69
2018-05-14T04:51:33.540Z,100997.59
2018-05-14T04:54:02.959Z,101006.68
2018-05-14T04:56:33.021Z,100990.38
2018-05-14T04:59:02.400Z,101005.86
2018-05-14T05:01:31.460Z,101008.12
2018-05-14T05:04:00.785Z,101007.42
2018-05-14T05:06:30.594Z,101000.38
2018-05-14T05:08:59.745Z,101005.92
2018-05-14T05:11:28.925Z,101004.25
2018-05-14T05:13:58.169Z,101008.62
2018-05-14T05:16:27.124Z,101001.41
2018-05-14T05:18:56.426Z,101014.83
2018-05-14T05:21:25.816Z,101022.73
2018-05-14T05:23:54.872Z,101023.41
2018-05-14T05:26:23.920Z,101030.88
2018-05-14T05:28:53.348Z,101033.76
2018-05-14T05:31:22.596Z,101031.97
2018-05-14T05:33:51.899Z,101033.47
2018-05-14T05:36:21.224Z,101037.41
2018-05-14T05:38:50.425Z,101036.48
2018-05-14T05:41:19.698Z,101040.59
2018-05-14T05:43:48.999Z,101034.52
2018-05-14T05:46:18.602Z,101033.73
2018-05-14T05:48:47.741Z,101039.50
2018-05-14T05:51:17.245Z,101039.19
2018-05-14T05:53:46.896Z,101051.70
2018-05-14T05:56:16.957Z,101049.95
2018-05-14T05:58:46.291Z,101056.40
2018-05-14T06:01:15.748Z,101060.14
2018-05-14T06:03:45.632Z,101059.53
2018-05-14T06:06:14.911Z,101064.61
2018-05-14T06:08:43.911Z,101067.34
2018-05-14T06:11:12.923Z,101071.09
2018-05-14T06:13:42.764Z,101071.27
2018-05-14T06:16:11.895Z,101060.18
2018-05-14T06:18:41.060Z,101058.48
2018-05-14T06:21:10.149Z,101062.74
2018-05-14T06:23:40.607Z,101063.65
2018-05-14T06:26:09.672Z,101063.41
2018-05-14T06:28:39.342Z,101068.34
2018-05-14T06:31:09.359Z,101062.95
2018-05-14T06:33:38.436Z,101065.61
2018-05-14T06:36:07.633Z,101070.80
2018-05-14T06:38:36.929Z,101068.42
2018-05-14T06:41:06.376Z,101064.89
2018-05-14T06:43:35.489Z,101056.17
2018-05-14T06:46:06.671Z,101057.73
2018-05-14T06:48:42.148Z,101055.20
2018-05-14T06:51:12.014Z,101054.70
2018-05-14T06:53:41.856Z,101054.17
2018-05-14T06:56:15.585Z,101059.77
2018-05-14T06:58:45.030Z,101062.02
2018-05-14T07:01:14.244Z,101062.38
2018-05-14T07:03:43.539Z,101063.95
2018-05-14T07:06:13.449Z,101069.45
2018-05-14T07:08:45.613Z,101068.03
2018-05-14T07:11:18.264Z,101069.02
2018-05-14T07:13:47.740Z,101073.59
2018-05-14T07:16:17.429Z,101070.92
2018-05-14T07:18:47.476Z,101076.57
2018-05-14T07:21:18.069Z,101074.23
2018-05-14T07:23:48.338Z,101067.23
2018-05-14T07:26:18.289Z,101061.40
2018-05-14T07:28:48.080Z,101065.25
2018-05-14T07:31:18.960Z,101062.95
2018-05-14T07:33:48.928Z,101069.11
2018-05-14T07:36:18.206Z,101072.36
2018-05-14T07:38:47.317Z,101067.33
2018-05-14T07:41:18.332Z,101064.19
2018-05-14T07:43:48.124Z,101061.16
2018-05-14T07:46:20.060Z,101062.82
2018-05-14T07:48:49.571Z,101060.89
2018-05-14T07:51:18.915Z,101057.75
2018-05-14T07:53:48.837Z,101064.23
2018-05-14T07:56:20.896Z,101055.59
2018-05-14T07:58:52.105Z,101054.85
2018-05-14T08:01:21.379Z,101059.74
2018-05-14T08:03:50.746Z,101062.67
2018-05-14T08:06:19.853Z,101055.70
2018-05-14T08:08:49.717Z,101061.30
2018-05-14T08:11:19.445Z,101068.85
2018-05-14T08:13:48.622Z,101072.95
2018-05-14T08:16:17.703Z,101062.11
2018-05-14T08:18:47.014Z,101068.59
2018-05-14T08:21:16.110Z,101068.90
2018-05-14T08:23:45.385Z,101078.04
2018-05-14T08:26:15.399Z,101069.89
2018-05-14T08:28:44.944Z,101078.89
2018-05-14T08:31:14.373Z,101074.30
2018-05-14T08:33:43.444Z,101080.53
2018-05-14T08:36:12.574Z,101090.38
2018-05-14T08:38:42.092Z,101087.95
2018-05-14T08:41:11.248Z,101085.45
2018-05-14T08:43:40.952Z,101090.39
2018-05-14T08:46:10.001Z,101090.45
2018-05-14T08:48:39.436Z,101096.40
2018-05-14T08:51:08.577Z,101090.27
2018-05-14T08:53:37.780Z,101088.71
2018-05-14T08:56:06.876Z,101094.23
2018-05-14T08:58:35.947Z,101104.02
2018-05-14T09:01:05.184Z,101096.51
2018-05-14T09:03:35.229Z,101099.05
2018-05-14T09:06:04.841Z,101104.32
2018-05-14T09:08:33.936Z,101099.45
2018-05-14T09:11:03.108Z,101099.52
2018-05-14T09:13:32.700Z,101109.33
2018-05-14T09:16:02.027Z,101108.11
2018-05-14T09:18:31.102Z,101115.82
2018-05-14T09:21:00.560Z,101111.64
2018-05-14T09:23:29.901Z,101114.86
2018-05-14T09:25:59.148Z,101106.79
2018-05-14T09:28:28.538Z,101112.77
2018-05-14T09:30:57.952Z,101112.23
2018-05-14T09:33:27.211Z,101114.63
2018-05-14T09:35:56.282Z,101121.67
2018-05-14T09:38:25.428Z,101118.91
2018-05-14T09:40:54.546Z,101119.81
2018-05-14T09:43:23.909Z,101122.22
2018-05-14T09:45:53.090Z,101120.23
2018-05-14T09:48:22.205Z,101122.21
2018-05-14T09:50:51.632Z,101123.56
2018-05-14T09:53:20.769Z,101125.77
2018-05-14T09:55:50.028Z,101131.12
2018-05-14T09:58:19.204Z,101133.27
2018-05-14T10:00:48.452Z,101125.03
2018-05-14T10:03:17.536Z,101127.64
2018-05-14T10:05:46.901Z,101120.97
2018-05-14T10:08:16.156Z,101123.39
2018-05-14T10:10:45.459Z,101121.06
2018-05-14T10:13:15.988Z,101121.59
2018-05-14T10:15:45.171Z,101119.20
2018-05-14T10:18:15.310Z,101121.31
2018-05-14T10:20:44.582Z,101124.27
2018-05-14T10:23:13.804Z,101118.05
2018-05-14T10:25:43.155Z,101121.01
2018-05-14T10:28:12.333Z,101118.34
2018-05-14T10:30:41.568Z,101126.16
2018-05-14T10:33:10.908Z,101118.57
2018-05-14T10:35:40.240Z,101121.74
2018-05-14T10:38:09.512Z,101125.23
2018-05-14T10:40:40.957Z,101117.70
2018-05-14T10:43:10.449Z,101123.58
2018-05-14T10:45:39.480Z,101118.00
2018-05-14T10:48:08.557Z,101128.07
2018-05-14T10:50:37.850Z,101126.66
2018-05-14T10:53:07.432Z,101125.98
2018-05-14T10:55:36.723Z,101122.59
2018-05-14T10:58:05.944Z,101123.30
2018-05-14T11:00:35.483Z,101116.45
2018-05-14T11:03:06.460Z,101125.24
2018-05-14T11:05:35.445Z,101108.21
2018-05-14T11:08:05.900Z,101116.53
2018-05-14T11:10:35.256Z,101115.09
2018-05-14T11:13:05.205Z,101116.16
2018-05-14T11:15:36.554Z,101117.16
2018-05-14T11:18:06.345Z,101109.27
2018-05-14T11:20:35.801Z,101113.43
2018-05-14T11:23:05.028Z,101105.55
2018-05-14T11:25:34.249Z,101102.70
2018-05-14T11:28:03.375Z,101099.10
2018-05-14T11:30:32.468Z,101100.83
2018-05-14T11:33:01.775Z,101107.97
2018-05-14T11:35:31.029Z,101103.52
2018-05-14T11:38:00.498Z,101102.13
2018-05-14T11:40:30.549Z,101098.71
2018-05-14T11:43:00.274Z,101098.66
2018-05-14T11:45:29.762Z,101095.11
2018-05-14T11:47:59.067Z,101098.59
2018-05-14T11:50:28.556Z,101098.78
2018-05-14T11:52:57.512Z,101095.80
2018-05-14T11:55:26.613Z,101100.92
2018-05-14T11:57:55.927Z,101094.84
2018-05-14T12:00:25.452Z,101099.45
2018-05-14T12:02:54.600Z,101097.27
2018-05-14T12:05:23.777Z,101101.65
2018-05-14T12:07:52.869Z,101104.30
2018-05-14T12:10:22.114Z,101100.83
2018-05-14T12:12:51.466Z,101106.47
2018-05-14T12:15:20.914Z,101108.70
2018-05-14T12:17:50.215Z,101111.28
2018-05-14T12:20:20.440Z,101104.91
2018-05-14T12:22:49.738Z,101107.08
2018-05-14T12:25:18.864Z,101103.80
2018-05-14T12:27:47.919Z,101108.09
2018-05-14T12:30:16.943Z,101106.73
2018-05-14T12:32:46.330Z,101106.94
2018-05-14T12:35:15.714Z,101109.00
2018-05-14T12:37:46.234Z,101101.25
2018-05-14T12:40:15.328Z,101104.36
2018-05-14T12:42:44.667Z,101097.92
2018-05-14T12:45:14.011Z,101103.69
2018-05-14T12:47:43.704Z,101107.84
2018-05-14T12:50:12.784Z,101113.97
2018-05-14T12:52:42.210Z,101109.56
2018-05-14T12:55:11.924Z,101111.84
2018-05-14T12:57:41.797Z,101112.72
2018-05-14T13:00:11.024Z,101109.27
2018-05-14T13:02:40.106Z,101106.55
2018-05-14T13:05:09.483Z,101109.86
2018-05-14T13:07:39.558Z,101102.42
2018-05-14T13:10:08.695Z,101105.96
2018-05-14T13:12:38.330Z,101101.19
2018-05-14T13:15:07.656Z,101110.91
2018-05-14T13:17:36.656Z,101112.88
2018-05-14T13:20:06.618Z,101111.80
2018-05-14T13:22:35.880Z,101109.30
2018-05-14T13:25:05.210Z,101102.41
2018-05-14T13:27:34.439Z,101103.33
2018-05-14T13:30:04.688Z,101096.41
2018-05-14T13:32:33.860Z,101099.56
2018-05-14T13:35:03.258Z,101093.81
2018-05-14T13:37:33.033Z,101096.52
2018-05-14T13:40:02.223Z,101103.22
2018-05-14T13:42:31.336Z,101098.02
2018-05-14T13:45:00.659Z,101099.98
2018-05-14T13:47:29.768Z,101099.97
2018-05-14T13:49:59.032Z,101102.78
2018-05-14T13:52:28.558Z,101101.70
2018-05-14T13:54:57.631Z,101100.92
2018-05-14T13:57:26.910Z,101101.05
2018-05-14T13:59:56.172Z,101107.38
2018-05-14T14:02:25.456Z,101099.34
2018-05-14T14:04:54.792Z,101096.29
2018-05-14T14:07:24.192Z,101097.13
2018-05-14T14:09:53.288Z,101096.52
2018-05-14T14:12:22.676Z,101108.01
2018-05-14T14:14:51.984Z,101097.72
2018-05-14T14:17:21.283Z,101100.77
2018-05-14T14:19:50.457Z,101102.16
2018-05-14T14:22:19.850Z,101101.70
2018-05-14T14:24:48.864Z,101101.35
2018-05-14T14:27:18.224Z,101102.47
2018-05-14T14:29:47.506Z,101098.81
2018-05-14T14:32:17.153Z,101105.23
2018-05-14T14:34:46.495Z,101106.14
2018-05-14T14:37:15.524Z,101105.77
2018-05-14T14:39:44.700Z,101093.16
2018-05-14T14:42:14.109Z,101097.51
2018-05-14T14:44:43.332Z,101105.53
2018-05-14T14:47:12.587Z,101090.05
2018-05-14T14:49:42.057Z,101090.02
2018-05-14T14:52:11.242Z,101092.91
2018-05-14T14:54:40.368Z,101079.41
2018-05-14T14:57:10.621Z,101086.14
2018-05-14T14:59:39.776Z,101086.22
2018-05-14T15:02:09.642Z,101092.72
2018-05-14T15:04:38.813Z,101086.36
2018-05-14T15:07:07.855Z,101088.11
2018-05-14T15:09:37.547Z,101091.27
2018-05-14T15:12:07.080Z,101090.07
2018-05-14T15:14:36.248Z,101087.87
2018-05-14T15:17:05.598Z,101091.72
2018-05-14T15:19:34.820Z,101087.81
2018-05-14T15:22:04.156Z,101091.98
2018-05-14T15:24:33.520Z,101090.04
2018-05-14T15:27:02.759Z,101091.87
2018-05-14T15:29:31.784Z,101092.48
2018-05-14T15:32:01.233Z,101093.23
2018-05-14T15:34:30.485Z,101088.97
2018-05-14T15:36:59.622Z,101092.08
2018-05-14T15:39:28.842Z,101088.13
2018-05-14T15:41:57.965Z,101087.47
2018-05-14T15:44:26.912Z,101083.77
2018-05-14T15:46:55.960Z,101089.47
2018-05-14T15:49:24.894Z,101079.38
2018-05-14T15:51:53.883Z,101086.12
2018-05-14T15:54:23.410Z,101091.61
2018-05-14T15:56:52.591Z,101084.37
2018-05-14T15:59:21.632Z,101084.28
2018-05-14T16:01:50.930Z,101079.79
2018-05-14T16:04:20.128Z,101089.05
2018-05-14T16:06:49.093Z,101093.69
2018-05-14T16:09:18.295Z,101098.20
2018-05-14T16:11:47.348Z,101103.34
2018-05-14T16:14:16.536Z,101106.39
2018-05-14T16:16:45.634Z,101099.36
2018-05-14T16:19:14.970Z,101114.05
2018-05-14T16:21:43.992Z,101117.24
2018-05-14T16:24:13.269Z,101114.19
2018-05-14T16:26:42.575Z,101116.88
2018-05-14T16:29:11.538Z,101119.79
2018-05-14T16:31:40.776Z,101119.78
2018-05-14T16:34:09.824Z,101125.66
2018-05-14T16:36:39.224Z,101126.67
2018-05-14T16:39:08.629Z,101129.20
2018-05-14T16:41:38.032Z,101126.55
2018-05-14T16:44:07.139Z,101131.65
2018-05-14T16:46:36.394Z,101128.81
2018-05-14T16:49:05.658Z,101131.16
2018-05-14T16:51:34.981Z,101137.45
2018-05-14T16:54:04.328Z,101135.16
2018-05-14T16:56:33.424Z,101139.90
2018-05-14T16:59:03.772Z,101136.65
2018-05-14T17:01:32.907Z,101145.63
2018-05-14T17:04:03.103Z,101150.97
2018-05-14T17:06:32.332Z,101152.23
2018-05-14T17:09:01.653Z,101160.12
2018-05-14T17:11:30.999Z,101162.70
2018-05-14T17:14:00.452Z,101161.31
2018-05-14T17:16:29.796Z,101160.23
2018-05-14T17:18:59.153Z,101162.28
2018-05-14T17:21:28.570Z,101167.66
2018-05-14T17:23:57.800Z,101166.09
2018-05-14T17:26:27.051Z,101155.86
2018-05-14T17:28:56.292Z,101153.14
2018-05-14T17:31:25.467Z,101161.67
2018-05-14T17:33:54.834Z,101160.92
2018-05-14T17:36:24.234Z,101158.87
2018-05-14T17:38:53.640Z,101176.13
2018-05-14T17:41:22.914Z,101172.92
2018-05-14T17:43:52.073Z,101178.72
2018-05-14T17:46:21.204Z,101169.77
2018-05-14T17:48:50.511Z,101173.79
2018-05-14T17:51:19.937Z,101176.77
2018-05-14T17:53:49.044Z,101182.35
2018-05-14T17:56:18.110Z,101180.27
2018-05-14T17:58:47.055Z,101184.47
2018-05-14T18:01:16.193Z,101189.45
2018-05-14T18:03:45.803Z,101195.62
2018-05-14T18:06:14.781Z,101184.77
2018-05-14T18:08:43.933Z,101185.87
2018-05-14T18:11:13.077Z,101184.10
2018-05-14T18:13:42.401Z,101187.73
2018-05-14T18:16:11.577Z,101189.55
2018-05-14T18:18:40.692Z,101201.34
2018-05-14T18:21:11.904Z,101204.89
2018-05-14T18:23:46.931Z,101214.06
2018-05-14T18:28:52.252Z,101227.87
2018-05-14T18:31:27.596Z,101229.00
2018-05-14T18:34:02.276Z,101229.38
2018-05-14T18:36:31.462Z,101232.81
2018-05-14T18:39:00.606Z,101240.47
2018-05-14T18:41:29.845Z,101237.55
2018-05-14T18:43:58.968Z,101241.47
2018-05-14T18:46:28.272Z,101246.44
2018-05-14T18:48:57.371Z,101240.09
2018-05-14T18:51:26.372Z,101244.66
2018-05-14T18:53:55.454Z,101248.97
2018-05-14T18:56:25.483Z,101248.62
2018-05-14T18:58:54.512Z,101252.69
2018-05-14T19:01:23.620Z,101250.59
2018-05-14T19:03:52.617Z,101248.20
2018-05-14T19:06:21.762Z,101251.00
2018-05-14T19:08:50.940Z,101252.85
2018-05-14T19:11:25.566Z,101249.53
2018-05-14T19:13:54.814Z,101251.02
2018-05-14T19:16:29.447Z,101242.14
2018-05-14T19:18:58.472Z,101244.72
2018-05-14T19:21:27.472Z,101247.86
2018-05-14T19:23:56.833Z,101246.10
2018-05-14T19:26:26.099Z,101256.52
2018-05-14T19:29:00.901Z,101247.64
2018-05-14T19:31:29.996Z,101251.66
2018-05-14T19:37:02.040Z,101251.68
2018-05-14T19:39:36.842Z,101247.37
2018-05-14T19:42:05.914Z,101246.82
2018-05-14T19:44:34.918Z,101240.81
2018-05-14T19:47:04.221Z,101237.48
2018-05-14T19:49:33.277Z,101246.47
2018-05-14T19:54:30.237Z,101246.77
2018-05-14T19:56:59.312Z,101247.89
2018-05-14T19:59:28.449Z,101242.80
2018-05-14T20:01:57.725Z,101243.84
2018-05-14T20:04:26.869Z,101245.92
2018-05-14T20:06:55.941Z,101249.70
2018-05-14T20:09:24.965Z,101256.61
2018-05-14T20:11:54.156Z,101258.05
2018-05-14T20:14:23.458Z,101263.27
2018-05-14T20:16:52.582Z,101256.55
2018-05-14T20:19:21.838Z,101261.59
2018-05-14T20:21:50.854Z,101256.95
2018-05-14T20:24:19.975Z,101255.64
2018-05-14T20:26:49.423Z,101257.16
2018-05-14T20:29:18.501Z,101253.17
2018-05-14T20:31:47.595Z,101255.81
2018-05-14T20:34:16.588Z,101258.33
2018-05-14T20:36:46.054Z,101255.88
2018-05-14T20:39:15.224Z,101247.50
2018-05-14T20:41:44.428Z,101257.77
2018-05-14T20:44:13.692Z,101268.30
2018-05-14T20:46:42.938Z,101260.14
2018-05-14T20:49:11.933Z,101263.98
2018-05-14T20:51:41.159Z,101263.98
2018-05-14T20:54:10.275Z,101259.95
2018-05-14T20:56:39.484Z,101263.34
2018-05-14T20:59:08.684Z,101261.45
2018-05-14T21:01:37.693Z,101259.97
2018-05-14T21:04:07.033Z,101256.61
2018-05-14T21:06:36.452Z,101254.52
2018-05-14T21:09:06.546Z,101249.63
2018-05-14T21:11:35.803Z,101250.16
2018-05-14T21:14:04.891Z,101254.10
2018-05-14T21:16:34.074Z,101256.33
2018-05-14T21:19:03.132Z,101242.08
2018-05-14T21:21:32.460Z,101243.90
2018-05-14T21:24:01.516Z,101244.45
2018-05-14T21:26:30.824Z,101232.53
2018-05-14T21:28:59.872Z,101238.55
2018-05-14T21:31:29.045Z,101235.55
2018-05-14T21:33:58.173Z,101230.41
2018-05-14T21:36:27.166Z,101228.84
2018-05-14T21:38:56.348Z,101222.91
2018-05-14T21:41:25.719Z,101227.83
2018-05-14T21:43:54.730Z,101230.20
2018-05-14T21:46:24.069Z,101229.92
2018-05-14T21:48:53.490Z,101229.58
2018-05-14T21:51:22.897Z,101221.14
2018-05-14T21:53:52.299Z,101223.37
2018-05-14T21:56:21.711Z,101229.85
2018-05-14T21:58:52.264Z,101235.34
2018-05-14T22:01:22.090Z,101235.95
2018-05-14T22:03:51.269Z,101238.48
2018-05-14T22:06:20.477Z,101243.48
2018-05-14T22:08:49.744Z,101241.86
2018-05-14T22:11:19.101Z,101252.09
2018-05-14T22:13:48.348Z,101251.94
2018-05-14T22:16:17.503Z,101248.84
2018-05-14T22:18:46.570Z,101251.45
2018-05-14T22:21:15.708Z,101262.48
2018-05-14T22:23:45.671Z,101248.17
2018-05-14T22:26:14.816Z,101239.41
2018-05-14T22:28:43.920Z,101242.91
2018-05-14T22:31:13.562Z,101241.34
2018-05-14T22:33:42.635Z,101240.03
2018-05-14T22:36:11.955Z,101243.40
2018-05-14T22:38:41.135Z,101241.85
2018-05-14T22:41:10.283Z,101244.45
2018-05-14T22:43:39.490Z,101234.55
2018-05-14T22:46:08.712Z,101231.94
2018-05-14T22:48:37.927Z,101242.28
2018-05-14T22:51:06.969Z,101230.95
2018-05-14T22:53:36.231Z,101242.67
2018-05-14T22:56:05.244Z,101245.03
2018-05-14T22:58:34.320Z,101235.21
2018-05-14T23:01:03.404Z,101242.60
2018-05-14T23:03:32.674Z,101241.09
2018-05-14T23:06:01.889Z,101242.16
2018-05-14T23:08:31.225Z,101232.69
2018-05-14T23:11:00.432Z,101238.94
2018-05-14T23:13:29.488Z,101239.88
2018-05-14T23:15:58.591Z,101236.69
2018-05-14T23:18:27.643Z,101241.76
2018-05-14T23:20:57.228Z,101254.34
2018-05-14T23:23:26.332Z,101255.83
2018-05-14T23:25:55.628Z,101255.70
2018-05-14T23:28:24.956Z,101253.50
2018-05-14T23:30:54.200Z,101242.50
2018-05-14T23:33:23.510Z,101244.97
2018-05-14T23:35:53.139Z,101251.04
2018-05-14T23:38:22.519Z,101252.45
2018-05-14T23:40:51.750Z,101253.34
2018-05-14T23:43:20.862Z,101261.63
2018-05-14T23:45:50.278Z,101262.68
2018-05-14T23:48:19.396Z,101269.30
2018-05-14T23:50:48.843Z,101279.10
2018-05-14T23:53:18.153Z,101261.32
2018-05-14T23:55:47.482Z,101287.91
2018-05-14T23:58:16.853Z,101265.64
